Time;durP1;ratioP1;P1;durP2;ratioP2;P2;SDS_P1;SDS_P2;PMS_P1;PMS_P2;Temp;Humidity;BMP_temperature;BMP_pressure;BME280_temperature;BME280_humidity;BME280_pressure;Samples;Min_cycle;Max_cycle;Signal;HPM_P1;HPM_P2
2023/07/19 00:00:43;;;;;;;5.90;1.53;;;;;;;19.88;52.83;99686.78;5064846;28;20028;-79
2023/07/19 00:03:09;;;;;;;3.42;1.92;;;;;;;19.99;52.90;99683.66;5065550;28;20763;-79
2023/07/19 00:05:34;;;;;;;5.30;2.63;;;;;;;20.08;53.25;99687.22;5065231;28;20123;-79
2023/07/19 00:08:02;;;;;;;5.20;1.50;;;;;;;20.03;53.29;99684.59;5065542;28;20037;-79
2023/07/19 00:10:27;;;;;;;5.88;1.83;;;;;;;19.97;53.31;99685.94;5064535;28;20094;-71
2023/07/19 00:12:53;;;;;;;4.07;1.55;;;;;;;20.02;53.30;99681.03;5062443;28;21229;-73
2023/07/19 00:15:18;;;;;;;3.47;1.75;;;;;;;20.06;52.68;99679.22;5061395;28;20037;-71
2023/07/19 00:17:44;;;;;;;5.82;1.63;;;;;;;20.12;52.59;99667.97;5061535;28;20064;-73
2023/07/19 00:20:10;;;;;;;3.72;1.55;;;;;;;20.12;52.40;99666.03;5062661;28;20473;-72
2023/07/19 00:22:36;;;;;;;5.10;1.77;;;;;;;20.18;51.79;99675.78;5068176;28;20684;-79
2023/07/19 00:25:01;;;;;;;2.97;1.23;;;;;;;20.32;51.23;99671.16;5069184;28;20075;-79
2023/07/19 00:27:27;;;;;;;7.80;2.08;;;;;;;20.38;50.77;99665.09;5068715;28;20036;-78
2023/07/19 00:29:52;;;;;;;3.92;1.33;;;;;;;20.33;50.00;99659.75;5067999;28;20045;-78
2023/07/19 00:32:17;;;;;;;4.23;1.37;;;;;;;20.40;49.82;99654.50;5065897;28;20056;-72
2023/07/19 00:34:43;;;;;;;4.03;1.92;;;;;;;20.51;49.45;99654.13;5065307;28;20254;-73
2023/07/19 00:37:08;;;;;;;3.63;1.80;;;;;;;20.37;50.31;99655.19;5064573;28;20040;-71
2023/07/19 00:39:34;;;;;;;5.15;2.03;;;;;;;20.24;49.87;99651.50;5064364;28;20644;-72
2023/07/19 00:41:59;;;;;;;4.63;1.63;;;;;;;20.27;50.46;99647.25;5065133;28;20814;-72
2023/07/19 00:44:24;;;;;;;3.58;1.02;;;;;;;20.27;49.56;99642.53;5064718;28;20253;-72
2023/07/19 00:46:50;;;;;;;3.17;1.47;;;;;;;20.33;49.81;99645.91;5064910;28;20485;-71
2023/07/19 00:49:15;;;;;;;3.53;1.15;;;;;;;20.45;49.54;99636.91;5064414;28;20261;-72
2023/07/19 00:51:41;;;;;;;4.40;1.85;;;;;;;20.28;50.31;99629.50;5064307;28;20036;-71
2023/07/19 00:54:07;;;;;;;2.95;1.10;;;;;;;20.24;50.13;99640.41;5064808;28;20039;-73
2023/07/19 00:56:33;;;;;;;4.22;1.73;;;;;;;20.33;50.24;99643.16;5064532;28;20028;-73
2023/07/19 00:59:01;;;;;;;4.10;1.75;;;;;;;20.42;49.79;99634.81;5064251;28;20123;-72
2023/07/19 01:01:26;;;;;;;4.15;1.67;;;;;;;20.35;50.64;99629.78;5067158;28;20035;-78
2023/07/19 01:03:52;;;;;;;6.18;2.08;;;;;;;20.42;50.75;99632.03;5068495;28;20036;-79
2023/07/19 01:06:19;;;;;;;5.47;1.48;;;;;;;20.45;51.15;99625.00;5067948;28;20068;-78
2023/07/19 01:08:46;;;;;;;4.28;1.67;;;;;;;20.27;52.32;99633.41;5067761;28;20090;-79
2023/07/19 01:11:11;;;;;;;6.05;2.15;;;;;;;20.22;51.18;99626.09;5067997;28;20124;-80
2023/07/19 01:13:37;;;;;;;6.47;1.35;;;;;;;20.08;51.43;99629.09;5068146;28;20128;-79
2023/07/19 01:16:02;;;;;;;3.92;1.50;;;;;;;20.02;51.67;99633.16;5068280;28;20025;-79
2023/07/19 01:18:27;;;;;;;4.75;1.70;;;;;;;19.88;52.00;99631.44;5067173;28;20036;-79
2023/07/19 01:20:53;;;;;;;6.22;2.03;;;;;;;19.82;52.11;99624.47;5068129;28;20948;-79
2023/07/19 01:23:18;;;;;;;4.53;1.52;;;;;;;19.78;51.87;99617.97;5067695;28;20037;-79
2023/07/19 01:25:43;;;;;;;5.20;1.80;;;;;;;19.61;53.00;99614.13;5068362;28;21218;-79
2023/07/19 01:28:08;;;;;;;5.60;2.00;;;;;;;19.55;52.76;99613.50;5067698;28;20254;-80
2023/07/19 01:30:34;;;;;;;4.97;2.00;;;;;;;19.52;52.51;99616.13;5066358;28;20253;-79
2023/07/19 01:32:59;;;;;;;6.70;2.20;;;;;;;19.57;52.83;99613.16;5066175;28;20265;-79
2023/07/19 01:35:24;;;;;;;3.97;1.38;;;;;;;19.61;52.79;99614.13;5067403;28;20106;-79
2023/07/19 01:37:50;;;;;;;8.33;1.40;;;;;;;19.64;52.75;99613.47;5066621;28;20036;-79
2023/07/19 01:40:15;;;;;;;5.45;1.83;;;;;;;19.71;52.09;99618.47;5065815;28;20262;-78
2023/07/19 01:42:41;;;;;;;7.78;2.63;;;;;;;19.75;52.72;99621.41;5066340;28;20032;-80
2023/07/19 01:45:07;;;;;;;7.82;2.35;;;;;;;19.61;53.58;99616.88;5066710;28;20036;-79
2023/07/19 01:47:33;;;;;;;9.00;2.72;;;;;;;19.37;54.58;99612.72;5066210;28;20086;-79
2023/07/19 01:49:59;;;;;;;5.20;2.28;;;;;;;19.33;54.86;99609.00;5066734;28;20101;-78
2023/07/19 01:52:24;;;;;;;6.15;1.73;;;;;;;19.19;55.55;99604.47;5066932;28;20064;-79
2023/07/19 01:54:49;;;;;;;7.57;2.60;;;;;;;19.19;55.04;99593.44;5066261;28;20037;-78
2023/07/19 01:57:15;;;;;;;6.75;2.22;;;;;;;19.10;55.33;99589.84;5065808;28;20615;-78
2023/07/19 01:59:40;;;;;;;4.03;1.80;;;;;;;19.01;55.49;99590.66;5066582;28;20745;-79
2023/07/19 02:02:05;;;;;;;5.38;2.13;;;;;;;19.02;55.52;99589.50;5065893;28;20067;-78
2023/07/19 02:04:31;;;;;;;4.40;2.43;;;;;;;19.03;54.95;99590.31;5065563;28;20040;-78
2023/07/19 02:06:56;;;;;;;7.23;1.87;;;;;;;18.99;55.41;99587.41;5065785;28;20036;-79
2023/07/19 02:09:22;;;;;;;6.97;2.53;;;;;;;19.01;54.70;99584.31;5065574;28;20261;-79
2023/07/19 02:11:47;;;;;;;5.93;2.20;;;;;;;18.96;54.76;99582.53;5064623;28;20355;-72
2023/07/19 02:14:12;;;;;;;7.03;2.20;;;;;;;18.86;55.01;99586.44;5062987;28;20029;-71
2023/07/19 02:16:38;;;;;;;5.80;2.05;;;;;;;18.73;55.53;99590.97;5063040;28;20036;-71
2023/07/19 02:19:05;;;;;;;3.30;1.70;;;;;;;18.66;56.00;99582.38;5062749;28;20101;-72
2023/07/19 02:21:31;;;;;;;3.50;1.77;;;;;;;18.66;56.41;99588.72;5064719;28;20115;-79
2023/07/19 02:23:57;;;;;;;5.05;2.20;;;;;;;18.63;56.45;99583.81;5066527;28;20115;-79
2023/07/19 02:26:22;;;;;;;6.50;1.80;;;;;;;18.80;55.92;99584.97;5066194;28;20028;-79
2023/07/19 02:28:48;;;;;;;10.80;3.05;;;;;;;18.78;55.69;99585.31;5066159;28;20229;-79
2023/07/19 02:31:13;;;;;;;5.35;2.33;;;;;;;18.83;55.45;99580.75;5066204;28;20052;-78
2023/07/19 02:33:38;;;;;;;4.68;2.10;;;;;;;18.82;55.22;99584.63;5066117;28;20081;-79
2023/07/19 02:36:04;;;;;;;4.87;1.87;;;;;;;18.90;54.80;99581.06;5065764;28;20028;-78
2023/07/19 02:38:29;;;;;;;10.80;2.90;;;;;;;18.86;55.02;99591.13;5065984;28;20993;-78
2023/07/19 02:40:59;;;;;;;8.40;2.80;;;;;;;18.78;55.40;99585.31;5067013;28;20779;-78
2023/07/19 02:43:24;;;;;;;6.28;2.08;;;;;;;18.73;55.48;99582.69;5065984;28;20509;-78
2023/07/19 02:45:51;;;;;;;4.43;1.55;;;;;;;18.75;55.31;99580.41;5066070;28;20064;-79
2023/07/19 02:48:17;;;;;;;7.03;2.58;;;;;;;18.97;54.58;99581.41;5065831;28;20082;-78
2023/07/19 02:50:46;;;;;;;4.72;2.45;;;;;;;19.09;53.94;99582.69;5065089;28;20025;-78
2023/07/19 02:53:12;;;;;;;4.82;1.75;;;;;;;19.19;53.47;99581.56;5066740;28;20458;-78
2023/07/19 02:55:37;;;;;;;6.28;2.30;;;;;;;19.24;53.49;99579.41;5066438;28;20036;-79
2023/07/19 02:58:02;;;;;;;4.60;2.40;;;;;;;19.32;53.20;99585.28;5066560;28;20060;-79
2023/07/19 03:00:28;;;;;;;4.20;1.93;;;;;;;19.43;52.95;99586.53;5065751;28;20037;-78
2023/07/19 03:02:53;;;;;;;6.70;1.90;;;;;;;19.46;52.63;99583.13;5066245;28;20792;-79
2023/07/19 03:05:20;;;;;;;7.65;2.55;;;;;;;19.47;52.72;99581.16;5065633;28;20267;-79
2023/07/19 03:07:45;;;;;;;10.23;2.55;;;;;;;19.54;52.27;99570.41;5066032;28;20027;-79
2023/07/19 03:10:10;;;;;;;7.93;1.90;;;;;;;19.56;52.20;99578.38;5065557;28;20040;-79
2023/07/19 03:12:36;;;;;;;6.30;2.15;;;;;;;19.52;52.32;99583.75;5065717;28;20266;-78
2023/07/19 03:15:01;;;;;;;4.93;2.20;;;;;;;19.51;52.43;99586.84;5066029;28;20029;-79
2023/07/19 03:17:26;;;;;;;12.85;3.78;;;;;;;19.34;52.22;99578.25;5065572;28;20269;-78
2023/07/19 03:19:51;;;;;;;4.27;1.70;;;;;;;19.47;52.06;99573.69;5065689;28;20525;-79
2023/07/19 03:22:17;;;;;;;5.63;2.53;;;;;;;19.56;52.22;99581.13;5063136;28;20288;-71
2023/07/19 03:24:42;;;;;;;5.20;2.93;;;;;;;19.54;52.45;99577.91;5062582;28;20048;-72
2023/07/19 03:27:07;;;;;;;4.53;1.73;;;;;;;19.52;52.74;99577.41;5062398;28;20287;-72
2023/07/19 03:29:33;;;;;;;6.37;2.20;;;;;;;19.47;53.00;99573.69;5061926;28;20037;-72
2023/07/19 03:31:58;;;;;;;13.97;2.43;;;;;;;19.52;52.94;99580.19;5062546;28;20277;-72
2023/07/19 03:34:23;;;;;;;6.43;1.90;;;;;;;19.58;52.79;99578.84;5061659;28;20267;-71
2023/07/19 03:36:48;;;;;;;6.70;2.07;;;;;;;19.59;52.93;99577.69;5062398;28;20040;-72
2023/07/19 03:39:15;;;;;;;5.97;1.55;;;;;;;19.56;53.31;99578.38;5061835;28;20417;-72
2023/07/19 03:41:40;;;;;;;5.95;1.98;;;;;;;19.41;53.63;99576.94;5063779;28;20041;-78
2023/07/19 03:44:05;;;;;;;4.27;2.03;;;;;;;19.37;54.02;99582.31;5065639;28;20463;-79
2023/07/19 03:46:31;;;;;;;4.82;2.63;;;;;;;19.45;54.02;99583.44;5065684;28;20056;-79
2023/07/19 03:48:56;;;;;;;7.63;2.50;;;;;;;19.58;53.31;99574.16;5065133;28;20636;-79
2023/07/19 03:51:21;;;;;;;9.98;2.47;;;;;;;19.70;52.75;99583.69;5066034;28;20094;-79
2023/07/19 03:53:47;;;;;;;5.68;2.55;;;;;;;19.72;52.81;99584.16;5065659;28;20036;-78
2023/07/19 03:56:12;;;;;;;6.67;2.13;;;;;;;19.71;52.88;99586.13;5069830;28;20032;-79
2023/07/19 03:58:39;;;;;;;6.97;2.75;;;;;;;19.71;53.04;99590.81;5069246;28;20734;-78
2023/07/19 04:01:05;;;;;;;8.35;2.15;;;;;;;19.65;53.09;99592.97;5069759;28;20072;-78
2023/07/19 04:03:30;;;;;;;5.80;2.38;;;;;;;19.54;54.12;99602.78;5069065;28;20071;-79
2023/07/19 04:05:57;;;;;;;5.35;2.20;;;;;;;19.49;54.92;99598.22;5070051;28;20048;-78
2023/07/19 04:08:22;;;;;;;6.07;2.38;;;;;;;19.40;55.70;99598.25;5069152;28;20119;-78
2023/07/19 04:10:48;;;;;;;5.95;2.22;;;;;;;19.33;55.91;99606.22;5068727;28;20108;-78
2023/07/19 04:13:13;;;;;;;4.18;1.63;;;;;;;19.08;55.98;99603.16;5069274;28;20032;-78
2023/07/19 04:15:39;;;;;;;6.00;2.22;;;;;;;19.14;55.77;99601.88;5069108;28;20067;-78
2023/07/19 04:18:05;;;;;;;4.55;2.33;;;;;;;19.28;55.40;99609.19;5068765;28;20048;-78
2023/07/19 04:20:31;;;;;;;7.90;2.78;;;;;;;19.51;55.22;99609.75;5068802;28;20032;-79
2023/07/19 04:22:57;;;;;;;5.97;1.73;;;;;;;19.48;54.53;99605.72;5069084;28;20063;-78
2023/07/19 04:25:24;;;;;;;11.57;3.17;;;;;;;19.56;54.40;99608.78;5069059;28;20036;-79
2023/07/19 04:27:52;;;;;;;9.88;3.38;;;;;;;19.44;54.90;99610.28;5068949;28;20161;-79
2023/07/19 04:30:18;;;;;;;3.58;2.35;;;;;;;19.33;54.81;99611.75;5068316;28;20112;-80
2023/07/19 04:32:43;;;;;;;4.97;2.15;;;;;;;19.28;54.49;99612.75;5065767;28;20528;-72
2023/07/19 04:35:09;;;;;;;5.00;2.28;;;;;;;19.31;54.41;99614.03;5064845;28;20033;-73
2023/07/19 04:37:35;;;;;;;5.00;2.30;;;;;;;19.19;55.26;99617.47;5064891;28;20029;-72
2023/07/19 04:40:00;;;;;;;7.10;2.80;;;;;;;19.23;55.42;99610.16;5064921;28;20047;-71
2023/07/19 04:42:28;;;;;;;4.40;2.42;;;;;;;19.17;55.57;99601.22;5064710;28;20040;-71
2023/07/19 04:44:54;;;;;;;6.63;2.95;;;;;;;19.22;55.47;99612.09;5064949;28;20037;-71
2023/07/19 04:47:19;;;;;;;8.68;1.88;;;;;;;19.16;55.50;99610.63;5064387;28;20041;-71
2023/07/19 04:49:45;;;;;;;5.35;2.53;;;;;;;19.25;54.91;99614.22;5064373;28;20032;-71
2023/07/19 04:52:10;;;;;;;7.05;2.80;;;;;;;19.35;54.74;99617.78;5067799;28;20074;-79
2023/07/19 04:54:36;;;;;;;6.15;2.35;;;;;;;19.37;54.92;99615.50;5068545;28;20036;-77
2023/07/19 04:57:01;;;;;;;3.97;1.80;;;;;;;19.44;54.48;99613.06;5068518;28;20031;-79
2023/07/19 04:59:26;;;;;;;6.50;2.08;;;;;;;19.39;54.50;99615.97;5067804;28;20268;-79
2023/07/19 05:01:52;;;;;;;8.80;2.72;;;;;;;19.45;55.08;99620.19;5068229;28;20107;-79
2023/07/19 05:04:17;;;;;;;6.88;2.75;;;;;;;19.43;54.96;99616.94;5068313;28;20025;-78
2023/07/19 05:06:43;;;;;;;5.38;2.15;;;;;;;19.53;55.07;99623.25;5067869;28;20033;-79
2023/07/19 05:09:09;;;;;;;5.43;2.92;;;;;;;19.56;55.08;99628.13;5067627;28;20068;-79
2023/07/19 05:11:35;;;;;;;6.15;2.03;;;;;;;19.59;55.04;99614.47;5067820;28;20075;-79
2023/07/19 05:14:00;;;;;;;6.68;2.80;;;;;;;19.62;55.27;99615.75;5067512;28;20032;-79
2023/07/19 05:16:25;;;;;;;6.03;2.33;;;;;;;19.57;55.30;99610.41;5067439;28;20639;-78
2023/07/19 05:18:51;;;;;;;4.85;2.53;;;;;;;19.58;55.41;99610.09;5067495;28;20115;-79
2023/07/19 05:21:16;;;;;;;9.38;2.88;;;;;;;19.54;55.39;99616.59;5066547;28;20032;-79
2023/07/19 05:23:42;;;;;;;6.07;2.17;;;;;;;19.47;55.52;99611.56;5067850;28;20085;-81
2023/07/19 05:26:08;;;;;;;3.92;1.67;;;;;;;19.59;55.29;99619.16;5067484;28;20067;-79
2023/07/19 05:28:33;;;;;;;5.75;1.98;;;;;;;19.69;55.04;99620.75;5068384;28;20060;-78
2023/07/19 05:31:03;;;;;;;18.07;2.90;;;;;;;19.73;54.91;99626.47;5067845;28;20052;-79
2023/07/19 05:33:28;;;;;;;7.50;1.90;;;;;;;19.64;54.87;99624.53;5068435;28;20361;-79
2023/07/19 05:35:54;;;;;;;8.65;2.75;;;;;;;19.59;55.45;99621.94;5067802;28;20241;-79
2023/07/19 05:38:19;;;;;;;4.20;1.90;;;;;;;19.50;55.97;99621.97;5067684;28;20090;-79
2023/07/19 05:40:45;;;;;;;4.70;1.73;;;;;;;19.50;56.54;99624.75;5067309;28;20349;-79
2023/07/19 05:43:10;;;;;;;5.47;2.88;;;;;;;19.51;56.55;99629.13;5067391;28;20032;-79
2023/07/19 05:45:36;;;;;;;5.17;2.33;;;;;;;19.65;56.00;99620.63;5067764;28;20059;-80
2023/07/19 05:48:01;;;;;;;9.27;2.60;;;;;;;19.74;55.57;99628.06;5067511;28;20264;-79
2023/07/19 05:50:27;;;;;;;4.80;2.17;;;;;;;19.83;55.40;99626.13;5066618;28;20044;-79
2023/07/19 05:52:53;;;;;;;4.85;2.05;;;;;;;19.81;55.43;99626.41;5066709;28;20864;-79
2023/07/19 05:55:19;;;;;;;8.07;3.00;;;;;;;19.94;55.24;99615.47;5066799;28;20107;-79
2023/07/19 05:57:44;;;;;;;6.43;2.63;;;;;;;19.88;55.30;99622.34;5067231;28;20036;-78
2023/07/19 06:00:24;;;;;;;6.10;2.50;;;;;;;19.97;55.15;99619.53;5067451;28;20379;-79
2023/07/19 06:02:53;;;;;;;6.22;2.70;;;;;;;19.89;55.67;99619.22;5067292;28;20289;-78
2023/07/19 06:05:19;;;;;;;7.72;2.33;;;;;;;19.95;55.61;99617.09;5067823;28;20117;-78
2023/07/19 06:07:47;;;;;;;5.45;2.58;;;;;;;19.93;55.62;99617.41;5067166;28;20526;-79
2023/07/19 06:10:13;;;;;;;5.75;2.28;;;;;;;19.99;55.82;99617.25;5065974;28;20029;-78
2023/07/19 06:12:40;;;;;;;9.65;2.40;;;;;;;20.11;55.65;99624.88;5066945;28;20147;-80
2023/07/19 06:15:06;;;;;;;8.63;3.22;;;;;;;20.16;55.76;99625.50;5066935;28;20070;-79
2023/07/19 06:17:31;;;;;;;6.75;2.97;;;;;;;20.13;55.72;99620.63;5066249;28;20032;-79
2023/07/19 06:19:56;;;;;;;5.15;2.25;;;;;;;20.28;55.47;99612.88;5065838;28;20440;-79
2023/07/19 06:22:22;;;;;;;5.97;2.70;;;;;;;20.33;55.31;99607.16;5066252;28;20086;-79
2023/07/19 06:24:47;;;;;;;12.03;2.57;;;;;;;20.38;55.41;99612.50;5066462;28;20372;-80
2023/07/19 06:27:16;;;;;;;4.60;2.33;;;;;;;20.43;55.60;99608.72;5066286;28;20269;-78
2023/07/19 06:29:41;;;;;;;9.18;2.35;;;;;;;20.37;55.83;99615.59;5065567;28;20489;-79
2023/07/19 06:32:07;;;;;;;7.00;2.53;;;;;;;20.41;55.97;99622.91;5066455;28;20135;-79
2023/07/19 06:34:32;;;;;;;5.63;2.67;;;;;;;20.41;56.38;99619.31;5065753;28;20032;-79
2023/07/19 06:36:57;;;;;;;7.87;3.20;;;;;;;20.38;56.45;99612.50;5066355;28;20032;-77
2023/07/19 06:39:22;;;;;;;7.50;2.40;;;;;;;20.38;57.93;99609.72;5065020;28;20277;-78
2023/07/19 06:41:48;;;;;;;9.80;3.43;;;;;;;20.24;59.30;99621.06;5065194;28;20277;-78
2023/07/19 06:44:13;;;;;;;4.03;1.97;;;;;;;20.38;59.66;99612.50;5065493;28;20024;-78
2023/07/19 06:46:38;;;;;;;6.73;2.40;;;;;;;20.51;59.81;99609.81;5066328;28;20043;-78
2023/07/19 06:49:04;;;;;;;7.73;3.60;;;;;;;20.60;59.82;99610.59;5065260;28;20266;-78
2023/07/19 06:51:29;;;;;;;10.27;3.30;;;;;;;20.54;59.48;99611.94;5065143;28;20039;-78
2023/07/19 06:53:54;;;;;;;18.40;2.85;;;;;;;20.60;59.96;99616.13;5065534;28;20056;-79
2023/07/19 06:56:20;;;;;;;6.82;2.80;;;;;;;20.68;59.88;99628.28;5065789;28;21413;-78
2023/07/19 06:58:45;;;;;;;5.50;2.63;;;;;;;20.44;60.11;99632.50;5066192;28;20044;-78
2023/07/19 07:01:10;;;;;;;9.93;3.90;;;;;;;20.40;60.46;99631.56;5065670;28;20315;-78
2023/07/19 07:03:36;;;;;;;6.68;2.90;;;;;;;20.51;60.20;99637.50;5065604;28;20410;-78
2023/07/19 07:06:02;;;;;;;7.32;2.80;;;;;;;20.42;61.20;99632.81;5065259;28;20516;-79
2023/07/19 07:08:27;;;;;;;6.53;3.17;;;;;;;20.54;61.07;99631.31;5065313;28;20160;-80
2023/07/19 07:10:53;;;;;;;7.93;3.17;;;;;;;20.65;61.58;99632.53;5065408;28;20036;-78
2023/07/19 07:13:19;;;;;;;7.75;2.97;;;;;;;20.75;61.13;99638.81;5065588;28;20249;-79
2023/07/19 07:15:44;;;;;;;10.25;3.85;;;;;;;20.94;60.00;99643.06;5065087;28;20035;-77
2023/07/19 07:18:09;;;;;;;9.43;3.50;;;;;;;20.95;60.22;99639.94;5063615;28;20032;-78
2023/07/19 07:20:35;;;;;;;7.68;3.17;;;;;;;20.85;60.33;99640.34;5064847;28;20769;-78
2023/07/19 07:23:00;;;;;;;7.60;2.80;;;;;;;20.73;60.00;99635.56;5065536;28;20587;-78
2023/07/19 07:25:26;;;;;;;7.18;3.22;;;;;;;20.75;60.18;99636.84;5065137;28;20037;-78
2023/07/19 07:27:51;;;;;;;10.10;3.20;;;;;;;20.87;59.60;99638.06;5065480;28;20045;-78
2023/07/19 07:30:16;;;;;;;15.87;5.57;;;;;;;20.94;59.11;99643.06;5067016;28;20040;-78
2023/07/19 07:32:42;;;;;;;11.05;3.10;;;;;;;20.86;57.98;99644.75;5069145;28;20368;-78
2023/07/19 07:35:07;;;;;;;9.43;3.95;;;;;;;20.83;57.81;99640.69;5069439;28;20067;-78
2023/07/19 07:37:32;;;;;;;10.20;4.47;;;;;;;20.93;58.13;99641.47;5069089;28;20032;-78
2023/07/19 07:39:58;;;;;;;8.77;3.37;;;;;;;21.06;57.62;99643.16;5068975;28;20042;-78
2023/07/19 07:42:24;;;;;;;7.85;2.92;;;;;;;20.81;57.71;99645.75;5069325;28;21036;-79
2023/07/19 07:44:49;;;;;;;9.93;3.55;;;;;;;20.84;58.39;99645.09;5069838;28;20492;-78
2023/07/19 07:47:15;;;;;;;6.82;2.97;;;;;;;20.85;58.01;99645.88;5069343;28;20128;-79
2023/07/19 07:49:40;;;;;;;6.03;2.63;;;;;;;20.77;57.49;99644.81;5069347;28;20047;-78
2023/07/19 07:52:06;;;;;;;7.10;2.80;;;;;;;20.82;57.67;99641.03;5069132;28;20039;-79
2023/07/19 07:54:32;;;;;;;8.15;3.00;;;;;;;20.75;57.86;99649.88;5068915;28;20025;-80
2023/07/19 07:56:57;;;;;;;8.75;2.70;;;;;;;20.85;57.59;99645.88;5068863;28;20028;-79
2023/07/19 07:59:22;;;;;;;14.13;3.27;;;;;;;20.84;58.02;99641.50;5068637;28;20135;-78
2023/07/19 08:01:48;;;;;;;6.97;2.77;;;;;;;20.80;58.06;99654.41;5069172;28;20638;-77
2023/07/19 08:04:13;;;;;;;7.50;3.53;;;;;;;20.80;57.89;99659.97;5069178;28;20322;-79
2023/07/19 08:06:38;;;;;;;5.47;2.90;;;;;;;20.85;58.18;99670.81;5068600;28;20829;-78
2023/07/19 08:09:04;;;;;;;8.32;3.08;;;;;;;20.84;58.50;99670.03;5068935;28;20269;-78
2023/07/19 08:11:31;;;;;;;11.32;2.72;;;;;;;20.84;58.88;99653.41;5068659;28;20070;-78
2023/07/19 08:13:57;;;;;;;10.48;3.45;;;;;;;20.78;59.99;99649.22;5068458;28;20122;-77
2023/07/19 08:16:22;;;;;;;9.23;3.88;;;;;;;20.85;61.46;99637.59;5067955;28;20063;-78
2023/07/19 08:18:48;;;;;;;9.27;4.38;;;;;;;20.94;62.65;99643.06;5067100;28;20028;-78
2023/07/19 08:21:13;;;;;;;13.07;3.22;;;;;;;21.05;63.47;99630.44;5067240;28;20094;-72
2023/07/19 08:23:38;;;;;;;7.57;3.45;;;;;;;20.95;62.98;99639.94;5064758;28;20488;-71
2023/07/19 08:26:03;;;;;;;11.90;3.87;;;;;;;20.98;63.39;99641.25;5065578;28;20069;-71
2023/07/19 08:28:29;;;;;;;11.23;3.77;;;;;;;21.06;63.35;99637.63;5064590;28;20268;-71
2023/07/19 08:30:55;;;;;;;13.30;3.55;;;;;;;21.03;62.88;99635.50;5064969;28;21271;-71
2023/07/19 08:33:24;;;;;;;6.32;2.40;;;;;;;21.18;63.19;99636.03;5064525;28;20044;-72
2023/07/19 08:35:50;;;;;;;6.55;3.05;;;;;;;21.16;61.86;99636.38;5065236;28;20107;-71
2023/07/19 08:38:16;;;;;;;14.20;3.63;;;;;;;21.25;61.61;99636.31;5064661;28;20383;-71
2023/07/19 08:40:53;;;;;;;6.95;3.35;;;;;;;21.33;61.57;99638.19;5064087;28;20064;-72
2023/07/19 08:43:19;;;;;;;13.60;3.70;;;;;;;21.42;61.68;99638.09;5064837;28;20456;-72
2023/07/19 08:45:45;;;;;;;10.20;3.80;;;;;;;21.51;61.89;99648.28;5064780;28;20586;-72
2023/07/19 08:48:10;;;;;;;11.07;3.58;;;;;;;21.34;61.49;99639.81;5065441;28;20032;-72
2023/07/19 08:50:36;;;;;;;10.80;3.07;;;;;;;21.23;61.04;99644.16;5064303;28;20044;-74
2023/07/19 08:53:02;;;;;;;12.38;2.78;;;;;;;21.24;60.66;99640.22;5064820;28;20265;-72
2023/07/19 08:55:30;;;;;;;8.55;3.15;;;;;;;21.26;60.58;99635.16;5065609;28;20560;-73
2023/07/19 08:57:55;;;;;;;5.68;2.55;;;;;;;21.36;60.75;99624.81;5065474;28;20121;-73
2023/07/19 09:00:20;;;;;;;7.67;3.10;;;;;;;21.30;60.02;99638.84;5065042;28;20131;-72
2023/07/19 09:02:45;;;;;;;8.98;3.47;;;;;;;21.33;60.11;99635.41;5065607;28;20801;-72
2023/07/19 09:05:13;;;;;;;7.37;2.93;;;;;;;21.29;60.00;99637.25;5064939;28;20089;-72
2023/07/19 09:07:39;;;;;;;5.82;2.60;;;;;;;21.19;59.44;99637.69;5065163;28;20272;-72
2023/07/19 09:10:06;;;;;;;5.45;2.30;;;;;;;21.09;59.49;99631.38;5065088;28;20093;-73
2023/07/19 09:12:40;;;;;;;11.60;3.10;;;;;;;21.05;59.85;99638.75;5065855;28;20024;-72
2023/07/19 09:15:09;;;;;;;;;;;;;;;21.08;60.49;99635.31;5065612;28;20032;-74
2023/07/19 09:17:41;;;;;;;8.07;3.17;;;;;;;21.03;61.35;99629.97;5065106;28;19920;-72
2023/07/19 09:20:07;;;;;;;8.80;3.13;;;;;;;21.06;62.66;99631.25;5064477;28;20500;-71
2023/07/19 09:22:37;;;;;;;9.50;4.15;;;;;;;20.99;63.27;99624.28;5064316;28;20037;-72
2023/07/19 09:25:04;;;;;;;9.57;3.00;;;;;;;20.91;64.61;99621.59;5064616;28;20032;-73
2023/07/19 09:27:30;;;;;;;8.68;3.97;;;;;;;20.78;65.00;99629.84;5063891;28;20500;-72
2023/07/19 09:29:55;;;;;;;8.05;3.38;;;;;;;20.73;65.33;99633.59;5064326;28;20791;-72
2023/07/19 09:32:22;;;;;;;5.85;2.30;;;;;;;20.56;66.42;99636.50;5064702;28;20062;-72
2023/07/19 09:34:47;;;;;;;5.55;2.70;;;;;;;20.63;66.67;99629.28;5064358;28;20131;-72
2023/07/19 09:37:12;;;;;;;10.73;3.23;;;;;;;20.67;67.23;99634.13;5064105;28;20045;-72
2023/07/19 09:39:38;;;;;;;9.25;3.70;;;;;;;20.62;67.29;99630.44;5063572;28;20891;-72
2023/07/19 09:42:04;;;;;;;5.97;3.10;;;;;;;20.61;67.28;99628.00;5064359;28;20039;-72
2023/07/19 09:44:30;;;;;;;8.60;3.47;;;;;;;20.62;67.80;99641.53;5063757;28;20036;-72
2023/07/19 09:47:01;;;;;;;6.65;3.35;;;;;;;20.61;67.50;99626.03;5063224;28;20032;-72
2023/07/19 09:49:26;;;;;;;10.77;4.13;;;;;;;20.62;67.66;99622.13;5063511;28;20036;-72
2023/07/19 09:51:55;;;;;;;6.95;3.67;;;;;;;20.77;67.66;99625.44;5063481;28;20037;-73
2023/07/19 09:54:21;;;;;;;16.98;4.47;;;;;;;20.81;67.58;99626.38;5063295;28;20059;-72
2023/07/19 09:56:47;;;;;;;10.15;3.08;;;;;;;20.77;67.74;99629.00;5062697;28;20036;-72
2023/07/19 09:59:22;;;;;;;12.07;3.85;;;;;;;20.73;67.84;99627.25;5063165;28;20043;-73
2023/07/19 10:01:48;;;;;;;8.70;3.97;;;;;;;20.59;67.96;99636.63;5063217;28;20036;-72
2023/07/19 10:04:24;;;;;;;7.30;3.10;;;;;;;20.46;68.39;99629.41;5063389;28;20363;-71
2023/07/19 10:07:02;;;;;;;8.10;4.22;;;;;;;20.51;68.74;99627.25;5063650;28;20028;-73
2023/07/19 10:09:31;;;;;;;10.15;4.18;;;;;;;20.42;68.37;99630.06;5063382;28;20032;-73
2023/07/19 10:12:01;;;;;;;10.35;4.70;;;;;;;20.45;68.43;99622.22;5062739;28;20165;-72
2023/07/19 10:14:28;;;;;;;8.88;3.60;;;;;;;20.73;68.23;99627.25;5063467;28;20036;-72
2023/07/19 10:16:58;;;;;;;13.15;5.15;;;;;;;20.73;67.68;99619.75;5063256;28;20033;-72
2023/07/19 10:19:23;;;;;;;9.60;4.53;;;;;;;20.89;67.40;99619.13;5062633;28;20683;-72
2023/07/19 10:22:05;;;;;;;10.45;5.93;;;;;;;20.91;68.26;99616.84;5065653;28;20036;-78
2023/07/19 10:24:32;;;;;;;11.82;4.55;;;;;;;20.90;67.84;99618.00;5067505;28;20165;-79
2023/07/19 10:27:04;;;;;;;10.27;4.88;;;;;;;21.10;67.21;99630.25;5067482;28;20202;-79
2023/07/19 10:29:45;;;;;;;12.53;4.63;;;;;;;21.06;66.69;99623.75;5066519;28;20032;-79
2023/07/19 10:32:11;;;;;;;9.88;4.38;;;;;;;21.03;66.77;99618.88;5066433;28;21173;-79
2023/07/19 10:34:37;;;;;;;10.23;4.10;;;;;;;21.25;66.80;99618.88;5067689;28;20082;-82
2023/07/19 10:37:03;;;;;;;10.63;4.70;;;;;;;21.33;66.70;99624.34;5066482;28;20074;-81
2023/07/19 10:39:30;;;;;;;6.40;3.65;;;;;;;21.36;67.11;99624.81;5066693;28;20043;-80
2023/07/19 10:41:56;;;;;;;12.73;4.43;;;;;;;21.57;65.68;99617.22;5067430;28;20037;-81
2023/07/19 10:44:22;;;;;;;8.70;4.50;;;;;;;21.60;64.29;99606.59;5066787;28;20047;-81
2023/07/19 10:46:48;;;;;;;9.80;4.30;;;;;;;21.76;62.84;99615.88;5066871;28;20035;-80
2023/07/19 10:49:14;;;;;;;12.63;5.25;;;;;;;22.12;62.53;99604.34;5066169;28;20115;-81
2023/07/19 10:51:39;;;;;;;10.23;3.92;;;;;;;22.13;62.07;99605.97;5067419;28;20041;-81
2023/07/19 10:54:06;;;;;;;9.77;4.27;;;;;;;22.22;61.15;99609.44;5066602;28;20067;-80
2023/07/19 10:56:32;;;;;;;10.52;4.95;;;;;;;22.50;60.23;99608.69;5066449;28;20264;-80
2023/07/19 10:59:01;;;;;;;14.93;4.50;;;;;;;22.46;60.14;99604.19;5067124;28;20058;-81
2023/07/19 11:01:28;;;;;;;11.05;4.32;;;;;;;22.55;59.29;99598.50;5065893;28;20173;-80
2023/07/19 11:03:54;;;;;;;8.98;3.65;;;;;;;22.43;59.19;99597.38;5065826;28;20036;-79
2023/07/19 11:06:19;;;;;;;7.95;4.28;;;;;;;22.55;59.07;99606.84;5066016;28;20024;-80
2023/07/19 11:08:45;;;;;;;11.75;4.03;;;;;;;22.69;58.22;99603.72;5066280;28;20469;-80
2023/07/19 11:11:13;;;;;;;12.25;4.93;;;;;;;22.68;57.74;99607.66;5066044;28;20044;-79
2023/07/19 11:13:39;;;;;;;12.85;5.28;;;;;;;22.62;58.28;99598.72;5064981;28;20486;-80
2023/07/19 11:16:04;;;;;;;9.00;4.38;;;;;;;22.58;58.32;99600.56;5065860;28;20032;-80
2023/07/19 11:18:34;;;;;;;11.50;4.18;;;;;;;22.73;58.19;99594.31;5065036;28;20067;-80
2023/07/19 11:20:59;;;;;;;17.63;3.75;;;;;;;23.07;58.10;99591.28;5066085;28;20060;-79
2023/07/19 11:23:26;;;;;;;9.63;4.30;;;;;;;22.99;56.89;99589.47;5064844;28;20570;-80
2023/07/19 11:26:05;;;;;;;8.40;3.40;;;;;;;22.91;56.70;99585.69;5065229;28;20310;-80